Time;durP1;ratioP1;P1;durP2;ratioP2;P2;SDS_P1;SDS_P2;PMS_P1;PMS_P2;Temp;Humidity;BMP_temperature;BMP_pressure;BME280_temperature;BME280_humidity;BME280_pressure;Samples;Min_cycle;Max_cycle;Signal;HPM_P1;HPM_P2
2021/04/01 00:00:49;;;;;;;75.97;44.13;;;307.40;2048.00;;;;;;4842262;29;20034;-73
2021/04/01 00:03:16;;;;;;;73.97;45.30;;;307.40;2048.00;;;;;;4852563;29;20030;-73
2021/04/01 00:05:42;;;;;;;70.25;45.25;;;307.40;2048.00;;;;;;4835962;29;20040;-73
2021/04/01 00:08:09;;;;;;;72.82;46.13;;;307.40;2048.00;;;;;;4846298;29;20479;-73
2021/04/01 00:10:44;;;;;;;68.50;42.85;;;307.40;2048.00;;;;;;4852404;29;20030;-73
2021/04/01 00:13:10;;;;;;;68.10;46.20;;;307.40;2048.00;;;;;;4856920;29;20022;-73
2021/04/01 00:15:40;;;;;;;86.00;55.58;;;307.40;2073.60;;;;;;4854089;29;20037;-73
2021/04/01 00:18:08;;;;;;;103.72;63.75;;;307.30;2073.60;;;;;;4831753;29;20456;-74
2021/04/01 00:20:33;;;;;;;90.35;59.97;;;307.30;2073.60;;;;;;4862085;29;20061;-73
2021/04/01 00:22:59;;;;;;;88.60;55.40;;;307.30;2073.60;;;;;;4855421;29;20054;-73
2021/04/01 00:25:25;;;;;;;85.22;52.47;;;307.40;2073.60;;;;;;4850820;29;20458;-73
2021/04/01 00:27:51;;;;;;;79.68;51.35;;;307.50;2048.00;;;;;;4856827;29;20543;-73
2021/04/01 00:30:17;;;;;;;73.63;50.28;;;307.50;2048.00;;;;;;4857207;29;20061;-73
2021/04/01 00:32:44;;;;;;;65.85;44.92;;;307.50;2048.00;;;;;;4826790;29;20456;-73
2021/04/01 00:35:10;;;;;;;73.90;47.05;;;307.60;2048.00;;;;;;4848355;29;20057;-73
2021/04/01 00:37:36;;;;;;;66.32;44.70;;;307.60;2048.00;;;;;;4837157;29;20125;-73
2021/04/01 00:40:04;;;;;;;69.85;42.88;;;307.60;2048.00;;;;;;4844075;29;20118;-73
2021/04/01 00:42:30;;;;;;;68.55;44.45;;;307.60;2022.40;;;;;;4838624;29;20787;-74
2021/04/01 00:45:05;;;;;;;58.72;38.20;;;307.50;2022.40;;;;;;4832043;29;20112;-73
2021/04/01 00:47:39;;;;;;;56.65;37.95;;;307.40;2048.00;;;;;;4843230;29;20026;-73
2021/04/01 00:50:08;;;;;;;54.47;34.20;;;307.40;2022.40;;;;;;4844723;29;20051;-73
2021/04/01 00:52:34;;;;;;;54.28;33.72;;;307.40;2022.40;;;;;;4838507;29;20021;-73
2021/04/01 00:55:00;;;;;;;51.55;34.08;;;307.40;2022.40;;;;;;4839869;29;20530;-72
2021/04/01 00:57:27;;;;;;;49.10;34.92;;;307.40;2022.40;;;;;;4854449;29;20028;-71
2021/04/01 00:59:54;;;;;;;54.92;34.33;;;307.40;2022.40;;;;;;4837190;29;20021;-73
2021/04/01 01:02:20;;;;;;;53.58;30.52;;;307.40;2048.00;;;;;;4843312;29;20049;-73
2021/04/01 01:04:46;;;;;;;45.28;31.30;;;307.40;2022.40;;;;;;4843907;29;20392;-71
2021/04/01 01:07:12;;;;;;;50.90;31.27;;;307.30;2022.40;;;;;;4843342;29;20042;-71
2021/04/01 01:09:38;;;;;;;40.85;27.73;;;307.30;2048.00;;;;;;4837010;29;20113;-72
2021/04/01 01:12:04;;;;;;;42.38;28.98;;;307.40;2048.00;;;;;;4843167;29;20022;-72
2021/04/01 01:14:30;;;;;;;44.20;29.85;;;307.40;2048.00;;;;;;4842497;29;20026;-71
2021/04/01 01:16:56;;;;;;;48.65;29.40;;;307.30;2022.40;;;;;;4832646;29;20395;-72
2021/04/01 01:19:21;;;;;;;47.85;31.70;;;307.20;2048.00;;;;;;4831047;29;20551;-72
2021/04/01 01:21:47;;;;;;;43.83;29.80;;;307.20;2048.00;;;;;;4830824;29;20029;-72
2021/04/01 01:24:17;;;;;;;43.58;28.25;;;307.20;2048.00;;;;;;4828510;29;20463;-72
2021/04/01 01:26:44;;;;;;;37.25;27.27;;;307.20;2073.60;;;;;;4843550;29;20050;-72
2021/04/01 01:29:10;;;;;;;46.78;27.27;;;307.20;2073.60;;;;;;4825811;29;20085;-73
2021/04/01 01:31:42;;;;;;;48.88;27.63;;;307.20;2073.60;;;;;;4825796;29;20102;-73
2021/04/01 01:34:08;;;;;;;37.10;26.60;;;307.20;2073.60;;;;;;4842421;29;20113;-74
2021/04/01 01:36:33;;;;;;;38.33;28.20;;;307.20;2073.60;;;;;;4823338;29;20560;-73
2021/04/01 01:38:59;;;;;;;41.83;27.33;;;307.20;2073.60;;;;;;4842544;29;20040;-72
2021/04/01 01:41:25;;;;;;;41.38;27.70;;;307.20;2073.60;;;;;;4842624;29;20041;-74
2021/04/01 01:43:52;;;;;;;33.17;25.13;;;282.50;2048.00;;;;;;4825804;29;20036;-72
2021/04/01 01:46:18;;;;;;;35.08;26.33;;;282.50;2048.00;;;;;;4841761;29;20030;-74
2021/04/01 01:48:44;;;;;;;37.47;25.83;;;282.50;2073.60;;;;;;4842630;29;20074;-72
2021/04/01 01:51:09;;;;;;;36.55;25.65;;;282.50;2073.60;;;;;;4839673;29;20436;-72
2021/04/01 01:53:35;;;;;;;41.97;26.45;;;282.50;2073.60;;;;;;4842150;29;20033;-74
2021/04/01 01:56:02;;;;;;;37.45;26.88;;;282.40;2073.60;;;;;;4842204;29;20038;-75
2021/04/01 01:58:27;;;;;;;35.38;24.55;;;282.40;2073.60;;;;;;4842051;29;20030;-73
2021/04/01 02:00:56;;;;;;;36.13;24.30;;;282.40;2073.60;;;;;;4841993;29;20056;-73
2021/04/01 02:03:26;;;;;;;32.53;23.48;;;282.40;2073.60;;;;;;4841678;29;20143;-73
2021/04/01 02:05:52;;;;;;;42.38;25.85;;;282.40;2073.60;;;;;;4837412;29;20105;-72
2021/04/01 02:08:19;;;;;;;34.42;23.63;;;282.40;2073.60;;;;;;4825368;29;20030;-74
2021/04/01 02:10:47;;;;;;;40.35;24.60;;;282.30;2099.20;;;;;;4825235;29;20042;-74
2021/04/01 02:13:15;;;;;;;43.47;26.35;;;282.30;2099.20;;;;;;4842107;29;20030;-74
2021/04/01 02:15:42;;;;;;;39.90;25.88;;;282.30;2099.20;;;;;;4841425;29;20026;-74
2021/04/01 02:18:13;;;;;;;36.20;24.02;;;282.30;2099.20;;;;;;4825470;29;20086;-74
2021/04/01 02:20:42;;;;;;;36.45;24.80;;;282.30;2099.20;;;;;;4825136;29;20034;-74
2021/04/01 02:23:10;;;;;;;41.72;26.20;;;282.30;2099.20;;;;;;4842040;29;20026;-73
2021/04/01 02:25:37;;;;;;;36.67;22.58;;;282.30;2099.20;;;;;;4840405;29;20030;-73
2021/04/01 02:28:04;;;;;;;34.25;24.33;;;282.30;2099.20;;;;;;4854365;29;20407;-73
2021/04/01 02:30:30;;;;;;;37.45;25.27;;;282.20;2099.20;;;;;;4854204;29;20037;-73
2021/04/01 02:32:56;;;;;;;32.75;23.75;;;282.20;2124.80;;;;;;4824919;29;20034;-74
2021/04/01 02:35:22;;;;;;;37.22;24.70;;;282.20;2124.80;;;;;;4849500;29;20033;-74
2021/04/01 02:37:48;;;;;;;38.53;25.33;;;282.10;2124.80;;;;;;4840678;29;20488;-74
2021/04/01 02:40:14;;;;;;;35.35;24.95;;;282.00;2099.20;;;;;;4827109;29;20461;-74
2021/04/01 02:42:40;;;;;;;37.42;23.90;;;281.90;2124.80;;;;;;4824784;29;20034;-74
2021/04/01 02:45:07;;;;;;;36.40;23.60;;;281.90;2124.80;;;;;;4825254;29;20022;-73
2021/04/01 02:47:33;;;;;;;30.77;21.92;;;281.90;2124.80;;;;;;4828205;29;20022;-74
2021/04/01 02:49:59;;;;;;;36.55;25.25;;;281.90;2124.80;;;;;;4841694;29;20441;-74
2021/04/01 02:52:24;;;;;;;38.83;25.05;;;281.90;2124.80;;;;;;4841465;29;20030;-73
2021/04/01 02:54:50;;;;;;;39.10;27.38;;;281.90;2124.80;;;;;;4841277;29;20109;-73
2021/04/01 02:57:17;;;;;;;40.92;25.17;;;281.90;2124.80;;;;;;4825196;29;20377;-73
2021/04/01 02:59:45;;;;;;;38.80;26.30;;;281.90;2124.80;;;;;;4844789;29;20021;-73
2021/04/01 03:02:11;;;;;;;32.70;25.25;;;281.90;2124.80;;;;;;4833541;29;20425;-74
2021/04/01 03:04:38;;;;;;;37.92;26.23;;;281.90;2124.80;;;;;;4824858;29;20079;-73
2021/04/01 03:07:05;;;;;;;40.67;25.25;;;281.80;2124.80;;;;;;4840316;29;20029;-74
2021/04/01 03:09:31;;;;;;;36.28;26.10;;;281.90;2150.40;;;;;;4825003;29;20481;-73
2021/04/01 03:11:57;;;;;;;36.30;26.05;;;281.80;2124.80;;;;;;4824991;29;20132;-74
2021/04/01 03:14:24;;;;;;;35.13;24.60;;;281.90;2124.80;;;;;;4824578;29;20049;-73
2021/04/01 03:16:49;;;;;;;35.53;24.13;;;281.80;2124.80;;;;;;4840781;29;20022;-74
2021/04/01 03:19:15;;;;;;;31.63;24.17;;;281.80;2099.20;;;;;;4841235;29;20034;-74
2021/04/01 03:21:43;;;;;;;45.00;28.90;;;281.70;2099.20;;;;;;4823793;29;20170;-74
2021/04/01 03:24:09;;;;;;;43.55;27.52;;;281.70;2099.20;;;;;;4843539;29;20030;-73
2021/04/01 03:26:35;;;;;;;47.03;28.02;;;281.70;2099.20;;;;;;4843232;29;20052;-73
2021/04/01 03:29:01;;;;;;;43.28;27.52;;;281.60;2099.20;;;;;;4850498;29;20030;-74
2021/04/01 03:31:26;;;;;;;44.00;27.42;;;281.60;2099.20;;;;;;4831588;29;20519;-73
2021/04/01 03:33:52;;;;;;;45.17;26.73;;;281.60;2099.20;;;;;;4841919;29;20484;-73
2021/04/01 03:36:18;;;;;;;53.22;28.10;;;281.60;2099.20;;;;;;4853578;29;20041;-74
2021/04/01 03:38:46;;;;;;;44.85;28.83;;;256.90;2073.60;;;;;;4841287;29;20516;-74
2021/04/01 03:41:11;;;;;;;51.25;30.27;;;256.90;2073.60;;;;;;4824491;29;20030;-73
2021/04/01 03:43:37;;;;;;;50.35;28.88;;;256.90;2099.20;;;;;;4848634;29;20036;-73
2021/04/01 03:46:03;;;;;;;41.38;28.83;;;256.90;2099.20;;;;;;4831999;29;20033;-73
2021/04/01 03:48:29;;;;;;;45.67;27.98;;;256.90;2073.60;;;;;;4827662;29;20034;-73
2021/04/01 03:50:55;;;;;;;48.75;29.83;;;256.80;2073.60;;;;;;4827951;29;20500;-74
2021/04/01 03:53:21;;;;;;;62.40;35.63;;;256.80;2099.20;;;;;;4844919;29;20037;-74
2021/04/01 03:55:47;;;;;;;58.25;32.63;;;256.70;2099.20;;;;;;4835381;29;20042;-75
2021/04/01 04:01:20;;;;;;;50.63;29.58;;;256.80;2124.80;;;;;;4841579;29;20050;-74
2021/04/01 04:11:56;;;;;;;46.58;28.45;;;256.60;2124.80;;;;;;4844166;29;20790;-73
2021/04/01 04:14:35;;;;;;;42.67;29.10;;;256.60;2124.80;;;;;;4844138;29;20045;-73
2021/04/01 04:17:00;;;;;;;43.75;28.02;;;256.60;2150.40;;;;;;4843593;29;20026;-73
2021/04/01 04:19:26;;;;;;;53.17;31.52;;;256.70;2150.40;;;;;;4844064;29;20109;-73
2021/04/01 04:21:52;;;;;;;61.45;34.58;;;256.60;2150.40;;;;;;4825912;29;20056;-73
2021/04/01 04:24:18;;;;;;;67.05;35.28;;;256.70;2150.40;;;;;;4827183;29;20029;-72
2021/04/01 04:26:43;;;;;;;61.28;34.33;;;256.60;2124.80;;;;;;4828541;29;20136;-72
2021/04/01 04:29:09;;;;;;;63.10;35.33;;;256.70;2124.80;;;;;;4843842;29;20029;-72
2021/04/01 04:31:35;;;;;;;62.97;33.47;;;256.80;2124.80;;;;;;4826701;29;20044;-74
2021/04/01 04:34:00;;;;;;;71.32;36.78;;;256.80;2124.80;;;;;;4843317;29;20037;-73
2021/04/01 04:36:26;;;;;;;57.03;32.42;;;256.80;2099.20;;;;;;4843628;29;20045;-73
2021/04/01 04:38:52;;;;;;;57.10;31.77;;;256.80;2099.20;;;;;;4826720;29;20030;-73
2021/04/01 04:41:17;;;;;;;53.45;33.55;;;256.80;2099.20;;;;;;4843546;29;20369;-73
2021/04/01 04:43:43;;;;;;;74.32;40.78;;;256.70;2099.20;;;;;;4826697;29;20480;-73
2021/04/01 04:46:09;;;;;;;88.85;41.92;;;256.50;2124.80;;;;;;4842243;29;20033;-73
2021/04/01 04:48:35;;;;;;;73.72;38.63;;;256.40;2176.00;;;;;;4843606;29;20030;-73
2021/04/01 04:51:00;;;;;;;74.15;35.42;;;256.40;2201.60;;;;;;4822910;29;20083;-73
2021/04/01 04:53:26;;;;;;;73.82;34.22;;;256.40;2201.60;;;;;;4843165;29;20649;-73
2021/04/01 04:56:13;;;;;;;70.22;38.25;;;256.40;2201.60;;;;;;4825693;29;20042;-73
2021/04/01 05:09:15;;;;;;;90.20;50.38;;;256.60;2201.60;;;;;;4831319;29;20041;-74
2021/04/01 05:11:40;;;;;;;80.40;46.90;;;256.50;2201.60;;;;;;4840500;29;20037;-73
2021/04/01 05:14:06;;;;;;;81.10;46.80;;;256.60;2201.60;;;;;;4842855;29;20030;-73
2021/04/01 05:16:33;;;;;;;95.07;48.88;;;256.80;2176.00;;;;;;4842593;29;20068;-72
2021/04/01 05:19:01;;;;;;;75.68;44.08;;;256.80;2176.00;;;;;;4842931;29;20616;-73
2021/04/01 05:21:39;;;;;;;60.70;38.90;;;256.90;2201.60;;;;;;4826115;29;20030;-73
2021/04/01 05:24:07;;;;;;;61.90;37.28;;;281.70;2201.60;;;;;;4824218;29;20034;-74
2021/04/01 05:29:07;;;;;;;54.72;35.75;;;281.90;2201.60;;;;;;4840779;29;20041;-73
2021/04/01 05:31:38;;;;;;;54.17;36.13;;;281.90;2227.20;;;;;;4825675;29;20042;-73
2021/04/01 05:34:04;;;;;;;51.45;35.92;;;282.10;2201.60;;;;;;4827829;29;20038;-73
2021/04/01 05:36:35;;;;;;;55.80;37.28;;;282.30;2201.60;;;;;;4841733;29;20081;-73
2021/04/01 05:39:01;;;;;;;51.22;37.35;;;282.40;2176.00;;;;;;4843077;29;20033;-73
2021/04/01 05:41:28;;;;;;;50.17;35.60;;;282.50;2176.00;;;;;;4826273;29;20037;-73
2021/04/01 05:46:38;;;;;;;43.45;32.47;;;307.60;2176.00;;;;;;4840619;29;20029;-73
2021/04/01 05:53:11;;;;;;;53.53;36.00;;;307.90;2124.80;;;;;;4841930;29;20046;-73
2021/04/01 06:00:46;;;;;;;56.33;34.97;;;333.20;2073.60;;;;;;4844185;29;20044;-73
2021/04/01 06:05:45;;;;;;;47.80;30.88;;;333.30;2048.00;;;;;;4844226;29;20562;-73
2021/04/01 06:08:25;;;;;;;47.08;32.13;;;333.50;2022.40;;;;;;4841367;29;20036;-73
2021/04/01 06:10:51;;;;;;;58.58;37.33;;;333.70;2022.40;;;;;;4823236;29;20098;-73
2021/04/01 06:13:19;;;;;;;49.42;32.92;;;358.50;1996.80;;;;;;4845602;29;20112;-72
2021/04/01 06:15:49;;;;;;;52.10;35.80;;;358.60;1971.20;;;;;;4841215;29;20395;-72
2021/04/01 06:18:19;;;;;;;46.97;34.50;;;358.70;1945.60;;;;;;4836859;29;20057;-73
2021/04/01 06:20:48;;;;;;;51.50;32.20;;;358.90;1920.00;;;;;;4844585;29;20037;-73
2021/04/01 06:23:28;;;;;;;41.95;29.30;;;359.10;1920.00;;;;;;4819158;29;20046;-73
2021/04/01 06:25:55;;;;;;;46.47;29.30;;;359.30;1868.80;;;;;;4847474;29;20033;-74
2021/04/01 06:28:32;;;;;;;43.90;30.75;;;384.20;1843.20;;;;;;4842838;29;20030;-73
2021/04/01 06:30:59;;;;;;;51.40;33.42;;;384.30;1817.60;;;;;;4846776;29;20025;-73
2021/04/01 06:33:27;;;;;;;38.15;28.85;;;384.60;1817.60;;;;;;4849249;29;20410;-73
2021/04/01 06:36:12;;;;;;;45.13;29.75;;;384.80;1766.40;;;;;;4846489;29;20082;-74
2021/04/01 06:38:38;;;;;;;36.65;27.50;;;409.70;1792.00;;;;;;4839466;29;20026;-73
2021/04/01 06:41:11;;;;;;;33.72;24.75;;;410.10;1740.80;;;;;;4824151;29;20045;-72
2021/04/01 06:43:58;;;;;;;29.45;22.60;;;435.20;1689.60;;;;;;4833110;29;20086;-73
2021/04/01 06:46:32;;;;;;;34.28;21.50;;;435.50;1664.00;;;;;;4844642;29;20034;-74
2021/04/01 06:51:47;;;;;;;34.83;20.83;;;435.90;1587.20;;;;;;4850337;29;20495;-73
2021/04/01 06:54:27;;;;;;;34.17;20.85;;;461.00;1587.20;;;;;;4830590;29;20037;-73
2021/04/01 06:57:04;;;;;;;30.13;21.05;;;461.10;1561.60;;;;;;4838809;29;20041;-73
2021/04/01 06:59:57;;;;;;;29.75;19.02;;;461.30;1536.00;;;;;;4840306;29;20033;-73
2021/04/01 07:02:32;;;;;;;32.88;21.02;;;461.60;1510.40;;;;;;4845239;29;20049;-73
2021/04/01 07:05:15;;;;;;;40.03;23.52;;;461.70;1536.00;;;;;;4850552;29;20026;-74
2021/04/01 07:07:48;;;;;;;48.10;25.85;;;461.70;1536.00;;;;;;4824421;29;20502;-73
2021/04/01 07:12:43;;;;;;;42.67;26.58;;;486.60;1484.80;;;;;;4844801;29;20105;-73
2021/04/01 07:15:21;;;;;;;32.47;23.58;;;486.90;1459.20;;;;;;4844311;29;20045;-73
2021/04/01 07:17:54;;;;;;;32.15;21.02;;;486.70;1433.60;;;;;;4840382;29;20033;-73
2021/04/01 07:44:59;;;;;;;20.95;15.82;;;512.80;1331.20;;;;;;4838268;29;20098;-72
2021/04/01 07:47:38;;;;;;;21.05;15.80;;;538.00;1331.20;;;;;;4837472;29;20026;-73
2021/04/01 07:50:22;;;;;;;31.75;14.75;;;538.30;1305.60;;;;;;4840149;29;20019;-73
2021/04/01 07:52:54;;;;;;;20.63;11.00;;;538.20;1305.60;;;;;;4817730;29;20036;-73
2021/04/01 08:00:36;;;;;;;12.68;8.98;;;563.60;1228.80;;;;;;4839543;29;20086;-73
2021/04/01 08:05:33;;;;;;;13.25;9.68;;;563.40;1228.80;;;;;;4839476;29;20121;-73
2021/04/01 08:08:08;;;;;;;10.57;8.40;;;563.20;1254.40;;;;;;4842923;29;20117;-73
2021/04/01 08:10:42;;;;;;;12.98;9.38;;;563.70;1228.80;;;;;;4839713;29;20022;-71
2021/04/01 08:13:12;;;;;;;19.08;10.35;;;563.70;1228.80;;;;;;4839579;29;20109;-73
2021/04/01 08:15:48;;;;;;;11.32;9.90;;;588.80;1203.20;;;;;;4816722;29;20124;-71
2021/04/01 08:18:25;;;;;;;11.15;8.23;;;589.30;1177.60;;;;;;4839577;29;20038;-72
2021/04/01 08:21:04;;;;;;;10.30;7.68;;;589.30;1152.00;;;;;;4833048;29;20112;-72
2021/04/01 08:23:36;;;;;;;14.40;8.32;;;589.40;1177.60;;;;;;4828330;29;20042;-71
2021/04/01 08:26:23;;;;;;;12.07;8.23;;;589.40;1152.00;;;;;;4839751;29;20045;-72
2021/04/01 08:36:27;;;;;;;13.73;9.77;;;614.70;1100.80;;;;;;4842853;29;20034;-72
2021/04/01 08:38:54;;;;;;;14.45;8.68;;;615.30;1075.20;;;;;;4810969;29;20041;-71
2021/04/01 08:41:32;;;;;;;21.35;10.60;;;640.00;1075.20;;;;;;4841211;29;20034;-71
2021/04/01 08:44:15;;;;;;;10.88;8.85;;;615.10;1126.40;;;;;;4825931;29;20409;-73
2021/04/01 08:47:16;;;;;;;11.32;8.23;;;640.00;1075.20;;;;;;4842186;29;20063;-72
2021/04/01 08:49:47;;;;;;;15.05;8.43;;;640.10;1075.20;;;;;;4838165;29;20034;-72
2021/04/01 08:52:54;;;;;;;12.13;8.15;;;640.30;1049.60;;;;;;4842435;29;20034;-72
2021/04/01 08:55:24;;;;;;;10.98;8.60;;;640.00;1075.20;;;;;;4823795;29;20050;-72
2021/04/01 08:58:08;;;;;;;14.18;7.68;;;614.80;1100.80;;;;;;4842314;29;20030;-72
2021/04/01 09:00:36;;;;;;;13.93;7.72;;;614.70;1126.40;;;;;;4847384;29;20547;-71
2021/04/01 09:03:04;;;;;;;12.50;6.97;;;640.00;1049.60;;;;;;4849295;29;20030;-74
2021/04/01 09:05:30;;;;;;;11.13;7.28;;;640.70;1024.00;;;;;;4824802;29;20158;-72
2021/04/01 09:08:02;;;;;;;14.38;8.55;;;640.80;1049.60;;;;;;4843142;29;20097;-72
2021/04/01 09:10:35;;;;;;;11.73;7.78;;;665.70;1049.60;;;;;;4851383;29;20026;-72
2021/04/01 09:15:40;;;;;;;9.68;7.70;;;665.70;1024.00;;;;;;4834903;29;20179;-72
2021/04/01 09:18:06;;;;;;;11.95;8.10;;;640.40;1024.00;;;;;;4840487;29;20033;-72
2021/04/01 09:20:33;;;;;;;12.15;8.25;;;666.10;998.40;;;;;;4843117;29;20030;-72
2021/04/01 09:23:04;;;;;;;10.77;7.68;;;666.50;972.80;;;;;;4823534;29;20049;-72
2021/04/01 09:25:41;;;;;;;11.25;8.40;;;691.30;972.80;;;;;;4839746;29;20089;-72
2021/04/01 09:28:10;;;;;;;9.73;7.60;;;691.80;947.20;;;;;;4841461;29;20045;-72
2021/04/01 09:30:36;;;;;;;16.35;8.70;;;666.10;998.40;;;;;;4823458;29;20097;-72
2021/04/01 09:33:09;;;;;;;9.18;7.22;;;666.20;998.40;;;;;;4823458;29;20025;-72
2021/04/01 09:35:36;;;;;;;10.23;7.82;;;691.80;947.20;;;;;;4823807;29;20041;-72
2021/04/01 09:38:06;;;;;;;11.15;8.00;;;692.10;921.60;;;;;;4823595;29;20132;-72
2021/04/01 09:40:37;;;;;;;16.73;9.52;;;716.80;947.20;;;;;;4839310;29;20034;-71
2021/04/01 09:43:20;;;;;;;17.25;9.30;;;717.10;921.60;;;;;;4822279;29;20034;-71
2021/04/01 09:45:48;;;;;;;16.10;8.35;;;717.60;870.40;;;;;;4823333;29;20026;-71
2021/04/01 09:48:16;;;;;;;13.50;8.23;;;717.40;896.00;;;;;;4840927;29;20034;-71
2021/04/01 09:50:47;;;;;;;11.68;8.10;;;717.30;896.00;;;;;;4841862;29;20121;-72
2021/04/01 09:53:18;;;;;;;12.63;8.48;;;717.40;896.00;;;;;;4823461;29;20042;-73
2021/04/01 09:55:53;;;;;;;15.05;8.82;;;717.00;921.60;;;;;;4817267;29;20050;-74
2021/04/01 09:58:40;;;;;;;16.70;9.50;;;716.80;921.60;;;;;;4819347;29;20151;-78
2021/04/01 10:04:12;;;;;;;12.07;8.75;;;691.50;947.20;;;;;;4787307;29;20038;-79
2021/04/01 10:06:43;;;;;;;21.35;11.02;;;691.90;921.60;;;;;;4769726;29;20031;-79
2021/04/01 10:09:16;;;;;;;12.95;9.20;;;691.90;947.20;;;;;;4782558;29;20043;-76
2021/04/01 10:12:07;;;;;;;12.75;9.30;;;691.90;921.60;;;;;;4781948;30;20085;-76
2021/04/01 10:14:34;;;;;;;12.93;9.05;;;716.80;921.60;;;;;;4782184;30;20096;-77
2021/04/01 10:17:12;;;;;;;15.63;8.90;;;717.50;870.40;;;;;;4768859;29;21387;-78
2021/04/01 10:19:47;;;;;;;13.38;9.15;;;717.70;870.40;;;;;;4782421;29;20023;-77
2021/04/01 10:22:34;;;;;;;14.43;8.75;;;742.40;896.00;;;;;;4765968;30;20544;-76
2021/04/01 10:25:16;;;;;;;12.48;9.43;;;742.70;870.40;;;;;;4781129;29;20050;-76
2021/04/01 10:27:49;;;;;;;10.63;7.70;;;742.40;870.40;;;;;;4784758;30;20055;-76
2021/04/01 10:30:17;;;;;;;14.35;10.63;;;742.50;896.00;;;;;;4784638;30;20114;-76
2021/04/01 10:33:07;;;;;;;13.13;9.88;;;717.70;870.40;;;;;;4769873;30;20019;-76
2021/04/01 10:35:36;;;;;;;16.40;8.88;;;743.20;844.80;;;;;;4767199;30;20043;-75
2021/04/01 10:38:05;;;;;;;15.48;9.25;;;743.30;844.80;;;;;;4765858;30;20109;-76
2021/04/01 10:40:32;;;;;;;15.00;10.68;;;768.30;819.20;;;;;;4765204;30;20405;-75
2021/04/01 10:43:09;;;;;;;13.50;9.80;;;743.30;844.80;;;;;;4767574;30;20028;-76
2021/04/01 10:45:38;;;;;;;12.73;9.38;;;768.10;819.20;;;;;;4749497;30;20031;-76
2021/04/01 10:48:25;;;;;;;11.82;8.80;;;742.90;870.40;;;;;;4751477;30;20490;-76
2021/04/01 10:50:52;;;;;;;12.80;8.57;;;743.20;844.80;;;;;;4765827;30;20035;-76
2021/04/01 10:53:20;;;;;;;14.15;10.18;;;743.10;844.80;;;;;;4762502;29;20052;-76
2021/04/01 10:55:47;;;;;;;12.02;8.75;;;742.40;896.00;;;;;;4749548;30;20043;-76
2021/04/01 10:58:14;;;;;;;14.25;9.35;;;742.70;870.40;;;;;;4766219;30;20064;-76
2021/04/01 11:00:50;;;;;;;13.30;8.50;;;742.60;870.40;;;;;;4750610;30;20048;-76
2021/04/01 11:03:18;;;;;;;21.48;11.43;;;742.60;870.40;;;;;;4765546;30;20134;-75
2021/04/01 11:05:45;;;;;;;21.15;13.98;;;743.00;870.40;;;;;;4764786;30;20036;-74
2021/04/01 11:08:12;;;;;;;19.13;11.65;;;768.30;819.20;;;;;;4763806;30;20537;-74
2021/04/01 11:10:39;;;;;;;17.73;12.75;;;768.80;793.60;;;;;;4749753;30;20027;-74
2021/04/01 11:13:06;;;;;;;12.30;9.00;;;794.40;819.20;;;;;;4795501;29;20044;-74
2021/04/01 11:15:41;;;;;;;17.67;12.70;;;794.40;819.20;;;;;;4828042;29;20038;-74
2021/04/01 11:18:10;;;;;;;19.27;11.30;;;819.20;819.20;;;;;;4817694;29;20039;-74
2021/04/01 11:20:39;;;;;;;12.18;8.20;;;794.40;819.20;;;;;;4828517;29;20109;-74
2021/04/01 11:23:19;;;;;;;13.43;9.18;;;819.50;793.60;;;;;;4825576;29;20156;-75
2021/04/01 11:26:06;;;;;;;11.80;9.20;;;793.60;844.80;;;;;;4828259;29;20035;-76
2021/04/01 11:28:39;;;;;;;9.50;8.55;;;768.90;819.20;;;;;;4822345;29;20478;-75
2021/04/01 11:31:10;;;;;;;16.27;10.27;;;768.30;844.80;;;;;;4818942;29;20062;-76
2021/04/01 11:33:39;;;;;;;17.67;12.35;;;794.30;819.20;;;;;;4835225;29;20041;-75
2021/04/01 11:36:12;;;;;;;11.82;8.77;;;819.90;793.60;;;;;;4823928;29;20070;-75
2021/04/01 11:38:44;;;;;;;13.98;9.18;;;819.50;793.60;;;;;;4838242;29;20026;-75
2021/04/01 11:41:13;;;;;;;15.15;9.98;;;793.60;844.80;;;;;;4823821;29;20042;-75
2021/04/01 11:43:40;;;;;;;14.18;10.50;;;768.20;819.20;;;;;;4823571;29;20038;-75
2021/04/01 11:46:18;;;;;;;13.60;9.77;;;717.10;896.00;;;;;;4840789;29;20034;-75
2021/04/01 11:48:45;;;;;;;19.60;10.57;;;717.70;870.40;;;;;;4823079;29;20673;-75
2021/04/01 11:51:20;;;;;;;12.32;10.93;;;717.60;870.40;;;;;;4840767;29;20033;-75
2021/04/01 11:53:46;;;;;;;14.13;10.60;;;743.20;844.80;;;;;;4822282;29;20033;-75
2021/04/01 11:56:13;;;;;;;13.57;9.57;;;768.40;819.20;;;;;;4838674;29;20566;-75
2021/04/01 11:58:39;;;;;;;12.55;9.65;;;768.60;793.60;;;;;;4834512;29;20407;-75
2021/04/01 12:01:14;;;;;;;12.73;8.60;;;768.90;819.20;;;;;;4840408;29;20038;-75
2021/04/01 12:06:39;;;;;;;13.88;10.77;;;793.80;819.20;;;;;;4803398;29;20438;-75
2021/04/01 12:09:05;;;;;;;14.50;9.98;;;819.30;819.20;;;;;;4802435;29;20056;-75
2021/04/01 12:11:44;;;;;;;15.48;11.00;;;794.30;819.20;;;;;;4802648;29;20034;-78
2021/04/01 12:14:13;;;;;;;17.13;10.82;;;768.90;819.20;;;;;;4787335;29;20031;-75
2021/04/01 12:16:40;;;;;;;12.95;8.13;;;768.10;819.20;;;;;;4790091;29;20053;-75
2021/04/01 12:19:06;;;;;;;11.85;8.75;;;768.10;844.80;;;;;;4803494;29;20038;-74
2021/04/01 12:21:33;;;;;;;11.88;8.80;;;768.00;819.20;;;;;;4803971;29;20071;-74
2021/04/01 12:24:04;;;;;;;12.48;9.32;;;768.10;819.20;;;;;;4802028;29;20243;-73
2021/04/01 12:26:50;;;;;;;13.90;10.05;;;743.00;844.80;;;;;;4788599;29;20047;-73
2021/04/01 12:29:17;;;;;;;10.93;9.10;;;717.30;896.00;;;;;;4804040;29;20035;-75
2021/04/01 12:31:58;;;;;;;18.45;11.57;;;691.60;947.20;;;;;;4804275;29;20044;-75
2021/04/01 12:34:32;;;;;;;19.15;12.82;;;716.80;921.60;;;;;;4801828;29;20026;-72
2021/04/01 12:37:02;;;;;;;12.57;9.25;;;717.70;870.40;;;;;;4801576;29;20076;-72
2021/04/01 12:39:33;;;;;;;13.93;11.35;;;743.10;844.80;;;;;;4800035;29;20062;-72
2021/04/01 12:41:59;;;;;;;15.20;11.23;;;768.90;819.20;;;;;;4808945;29;20042;-73
2021/04/01 12:44:45;;;;;;;16.15;9.45;;;793.60;844.80;;;;;;4840806;29;20033;-73
2021/04/01 12:47:21;;;;;;;11.57;8.65;;;793.80;844.80;;;;;;4839425;29;20030;-73
2021/04/01 12:49:48;;;;;;;12.38;8.75;;;794.30;819.20;;;;;;4842088;29;20068;-73
2021/04/01 12:52:14;;;;;;;13.45;10.45;;;819.60;793.60;;;;;;4830687;29;20034;-73
2021/04/01 12:54:43;;;;;;;12.38;9.07;;;794.40;793.60;;;;;;4824799;29;20045;-73
2021/04/01 12:57:13;;;;;;;13.07;9.68;;;768.00;819.20;;;;;;4841803;29;20034;-74
2021/04/01 12:59:53;;;;;;;27.13;20.58;;;768.10;819.20;;;;;;4838554;29;20285;-73
2021/04/01 13:02:21;;;;;;;17.83;10.68;;;768.40;819.20;;;;;;4841960;29;20037;-73
2021/04/01 13:04:59;;;;;;;15.05;9.73;;;793.70;844.80;;;;;;4840566;29;20046;-73
2021/04/01 13:12:48;;;;;;;12.52;8.52;;;794.10;819.20;;;;;;4785529;30;20192;-73
2021/04/01 13:15:14;;;;;;;10.73;9.13;;;819.50;768.00;;;;;;4784083;29;20566;-73
2021/04/01 13:17:40;;;;;;;18.60;12.30;;;819.60;768.00;;;;;;4785210;30;20023;-74
2021/04/01 13:20:07;;;;;;;14.90;9.43;;;819.80;768.00;;;;;;4784788;30;20103;-75
2021/04/01 13:22:56;;;;;;;11.65;9.10;;;819.80;768.00;;;;;;4783342;30;20138;-74
2021/04/01 13:25:21;;;;;;;14.90;10.15;;;820.10;742.40;;;;;;4782912;29;20032;-74
2021/04/01 13:27:51;;;;;;;14.13;9.07;;;819.30;768.00;;;;;;4783580;29;20051;-73
2021/04/01 13:30:21;;;;;;;11.55;8.48;;;819.40;768.00;;;;;;4769588;29;20027;-73
2021/04/01 13:38:06;;;;;;;10.88;7.80;;;819.40;768.00;;;;;;4783188;29;20210;-73
2021/04/01 13:40:36;;;;;;;10.30;7.72;;;819.40;768.00;;;;;;4767633;30;20043;-73
2021/04/01 13:43:03;;;;;;;10.55;7.30;;;819.20;768.00;;;;;;4786045;29;20122;-73
2021/04/01 13:45:29;;;;;;;14.40;8.80;;;819.90;768.00;;;;;;4781029;29;20498;-73
2021/04/01 13:47:58;;;;;;;14.20;8.00;;;794.30;793.60;;;;;;4820862;29;20126;-73
2021/04/01 13:50:27;;;;;;;12.40;8.43;;;819.20;793.60;;;;;;4839902;29;20026;-74
2021/04/01 13:55:37;;;;;;;9.25;7.40;;;819.40;768.00;;;;;;4839974;29;20034;-73
2021/04/01 13:58:17;;;;;;;10.48;7.85;;;819.80;768.00;;;;;;4835434;29;20062;-73
2021/04/01 14:08:58;;;;;;;15.27;8.57;;;742.70;844.80;;;;;;4837020;29;20060;-73
2021/04/01 14:11:26;;;;;;;12.60;7.45;;;742.40;870.40;;;;;;4835186;29;20117;-73
2021/04/01 14:13:51;;;;;;;10.48;7.03;;;742.80;844.80;;;;;;4838697;29;20030;-73